Aérodrome :
LOGIN :

S'inscrire | Disclaimer

   EN    FR    IT 

 










Légende :    VFR   VFR Marginal   IFR   IFR Intensif   IFR Très Intensif
Visi : 
Plafond : 
>= 8 km
>= 3000ft
5 à 8 km
1000 à 3000 ft
1500m à 5 km
500 à 1000 ft
800 à 1500m
200 à 500 ft
< 800m
< 200 ft
Symboles :   Orages  Brouillard  Fortes neiges  Fortes précipitations  Vent > 20 kt
SIGMETs :   Divers  Orages  Givrage  Turbulence  Onde Orograph.  Cendres Volcan.







- Altitude de l'aérodrome : 33 ft
- Code IATA : MHZ


EGUN - RAF Mildenhall

DERNIER METAR :
  • 161658Z AUTO 22012KT 9999 CLR 22/09 A3000 RMK AO2 SLP162 T02240094

METARs EXPIRÉS :
  • 161558Z AUTO 23011KT 9999 CLR 22/10 A3001 RMK AO2 SLP165 T02220100
  • 161504Z AUTO 20012KT 9999 FEW110 22/11 A3004 RMK AO2 WSHFT 1453 SLP176
  • 161442Z AUTO 24012KT 9999 CLR 23/10 A3004 RMK AO2 WSHFT 33 SLP176

TAF AMD TAF EGUN
Valide du 16 à 14h jusqu'au 17 à 18h UTC


161430Z 1614/1718 20009KT 9999 SCT035 QNH2999INS
TEMPO 1615/1619 20010G20KT
BECMG 1621/1622 19015G25KT 9999 SCT050 QNH2994INS
BECMG 1703/1704 22015G20KT 9000 -RA BKN010 OVC040 640809 641701 QNH2985INS
TEMPO 1705/1709 BKN007
BECMG 1711/1712 23012KT 9999 NSW SCT040 QNH2985INS TX24/1615Z TN17/1700Z
Pas de NOTAMs connus pour ce terrain.



MET'MAP, la Météo Aéronautique d'un coup d'oeil ! - Copyright ORBIFLY Décembre 2007 - Disclaimer

ORBIFLY MET'MAP TEAM :

Programmation & Développement : Alexandra Zaïnal
Conception & Développement : Baudouin d'Aumeries
Co-Programmation & Développement : Marc-Olivier Méhu
Soutien technique & logistique : Manuel Goepfert

Contact : metmap@orbifly.com




SOURCES & CREDITS :

   NOAA